sensor_id;sensor_type;location;lat;lon;timestamp;pressure;altitude;pressure_sealevel;temperature;humidity
33280;BME280;20403;43.114;12.434;2023-02-23T00:00:34;99167.22;;;7.91;100.00
33280;BME280;20403;43.114;12.434;2023-02-23T00:03:00;99167.63;;;7.95;100.00
33280;BME280;20403;43.114;12.434;2023-02-23T00:05:31;99158.84;;;7.96;100.00
33280;BME280;20403;43.114;12.434;2023-02-23T00:07:59;99156.84;;;7.91;100.00
33280;BME280;20403;43.114;12.434;2023-02-23T00:10:26;99161.84;;;7.79;100.00
33280;BME280;20403;43.114;12.434;2023-02-23T00:12:56;99162.47;;;7.68;100.00
33280;BME280;20403;43.114;12.434;2023-02-23T00:15:23;99160.28;;;7.72;100.00
33280;BME280;20403;43.114;12.434;2023-02-23T00:17:52;99160.66;;;7.69;100.00
33280;BME280;20403;43.114;12.434;2023-02-23T00:20:17;99166.44;;;7.71;100.00
33280;BME280;20403;43.114;12.434;2023-02-23T00:22:52;99155.47;;;7.82;100.00
33280;BME280;20403;43.114;12.434;2023-02-23T00:25:18;99168.81;;;7.92;100.00
33280;BME280;20403;43.114;12.434;2023-02-23T00:27:43;99169.59;;;8.06;100.00
33280;BME280;20403;43.114;12.434;2023-02-23T00:30:14;99171.19;;;8.07;100.00
33280;BME280;20403;43.114;12.434;2023-02-23T00:32:40;99163.00;;;7.97;100.00
33280;BME280;20403;43.114;12.434;2023-02-23T00:35:06;99170.19;;;8.08;100.00
33280;BME280;20403;43.114;12.434;2023-02-23T00:37:36;99164.81;;;8.10;100.00
33280;BME280;20403;43.114;12.434;2023-02-23T00:40:02;99169.75;;;8.25;100.00
33280;BME280;20403;43.114;12.434;2023-02-23T00:42:36;99169.72;;;8.45;100.00
33280;BME280;20403;43.114;12.434;2023-02-23T00:45:02;99169.53;;;8.46;100.00
33280;BME280;20403;43.114;12.434;2023-02-23T00:47:32;99166.91;;;8.53;100.00
33280;BME280;20403;43.114;12.434;2023-02-23T00:49:59;99163.94;;;8.43;100.00
33280;BME280;20403;43.114;12.434;2023-02-23T00:52:25;99169.09;;;8.49;100.00
33280;BME280;20403;43.114;12.434;2023-02-23T00:54:50;99159.72;;;8.48;100.00
33280;BME280;20403;43.114;12.434;2023-02-23T00:57:15;99172.28;;;8.51;100.00
33280;BME280;20403;43.114;12.434;2023-02-23T00:59:41;99166.84;;;8.59;100.00
33280;BME280;20403;43.114;12.434;2023-02-23T01:02:06;99156.91;;;8.50;100.00
33280;BME280;20403;43.114;12.434;2023-02-23T01:04:31;99160.50;;;8.55;100.00
33280;BME280;20403;43.114;12.434;2023-02-23T01:06:57;99152.59;;;8.69;100.00
33280;BME280;20403;43.114;12.434;2023-02-23T01:09:22;99156.22;;;8.68;100.00
33280;BME280;20403;43.114;12.434;2023-02-23T01:11:53;99149.25;;;8.61;100.00
33280;BME280;20403;43.114;12.434;2023-02-23T01:14:20;99141.84;;;8.65;100.00
33280;BME280;20403;43.114;12.434;2023-02-23T01:16:46;99144.47;;;8.58;100.00
33280;BME280;20403;43.114;12.434;2023-02-23T01:19:11;99137.91;;;8.49;100.00
33280;BME280;20403;43.114;12.434;2023-02-23T01:21:41;99142.03;;;8.63;100.00
33280;BME280;20403;43.114;12.434;2023-02-23T01:24:07;99136.47;;;8.60;100.00
33280;BME280;20403;43.114;12.434;2023-02-23T01:26:36;99132.13;;;8.47;100.00
33280;BME280;20403;43.114;12.434;2023-02-23T01:29:05;99127.34;;;8.44;100.00
33280;BME280;20403;43.114;12.434;2023-02-23T01:31:33;99122.31;;;8.49;100.00
33280;BME280;20403;43.114;12.434;2023-02-23T01:34:00;99114.13;;;8.46;100.00
33280;BME280;20403;43.114;12.434;2023-02-23T01:36:26;99118.31;;;8.53;100.00
33280;BME280;20403;43.114;12.434;2023-02-23T01:38:54;99122.44;;;8.68;100.00
33280;BME280;20403;43.114;12.434;2023-02-23T01:41:25;99123.44;;;8.67;100.00
33280;BME280;20403;43.114;12.434;2023-02-23T01:43:58;99109.28;;;8.62;100.00
33280;BME280;20403;43.114;12.434;2023-02-23T01:46:24;99115.66;;;8.67;100.00
33280;BME280;20403;43.114;12.434;2023-02-23T01:48:51;99120.88;;;8.60;100.00
33280;BME280;20403;43.114;12.434;2023-02-23T01:51:23;99115.31;;;8.50;100.00
33280;BME280;20403;43.114;12.434;2023-02-23T01:54:03;99115.31;;;8.50;100.00
33280;BME280;20403;43.114;12.434;2023-02-23T01:56:32;99119.53;;;8.51;100.00
33280;BME280;20403;43.114;12.434;2023-02-23T01:59:04;99106.97;;;8.41;100.00
33280;BME280;20403;43.114;12.434;2023-02-23T02:01:30;99104.94;;;8.43;100.00
33280;BME280;20403;43.114;12.434;2023-02-23T02:04:00;99105.78;;;8.44;100.00
33280;BME280;20403;43.114;12.434;2023-02-23T02:06:27;99095.78;;;8.34;100.00
33280;BME280;20403;43.114;12.434;2023-02-23T02:08:57;99096.16;;;8.37;100.00
33280;BME280;20403;43.114;12.434;2023-02-23T02:11:23;99091.53;;;8.53;100.00
33280;BME280;20403;43.114;12.434;2023-02-23T02:14:02;99096.03;;;8.64;100.00
33280;BME280;20403;43.114;12.434;2023-02-23T02:39:03;99107.00;;;8.73;100.00
33280;BME280;20403;43.114;12.434;2023-02-23T02:41:48;99109.41;;;8.74;100.00
33280;BME280;20403;43.114;12.434;2023-02-23T02:44:29;99106.66;;;8.62;100.00
33280;BME280;20403;43.114;12.434;2023-02-23T02:47:00;99107.63;;;8.68;100.00
33280;BME280;20403;43.114;12.434;2023-02-23T02:49:40;99107.84;;;8.67;100.00
33280;BME280;20403;43.114;12.434;2023-02-23T02:54:52;99103.69;;;8.91;100.00
33280;BME280;20403;43.114;12.434;2023-02-23T02:57:23;99110.88;;;8.95;100.00
33280;BME280;20403;43.114;12.434;2023-02-23T02:59:50;99101.09;;;8.91;100.00
33280;BME280;20403;43.114;12.434;2023-02-23T03:02:37;99109.97;;;8.83;100.00
33280;BME280;20403;43.114;12.434;2023-02-23T03:05:25;99115.34;;;8.81;100.00
33280;BME280;20403;43.114;12.434;2023-02-23T03:11:07;99108.28;;;8.95;100.00
33280;BME280;20403;43.114;12.434;2023-02-23T03:30:05;99116.28;;;8.94;100.00
33280;BME280;20403;43.114;12.434;2023-02-23T03:32:55;99107.03;;;8.98;100.00
33280;BME280;20403;43.114;12.434;2023-02-23T03:35:50;99097.81;;;9.02;100.00
33280;BME280;20403;43.114;12.434;2023-02-23T03:38:44;99100.31;;;8.90;100.00
33280;BME280;20403;43.114;12.434;2023-02-23T03:41:32;99103.38;;;8.80;100.00
33280;BME280;20403;43.114;12.434;2023-02-23T03:44:28;99097.72;;;8.90;100.00
33280;BME280;20403;43.114;12.434;2023-02-23T03:47:14;99107.94;;;8.85;100.00
33280;BME280;20403;43.114;12.434;2023-02-23T03:50:03;99112.22;;;8.66;100.00
33280;BME280;20403;43.114;12.434;2023-02-23T03:52:53;99103.31;;;8.55;100.00
33280;BME280;20403;43.114;12.434;2023-02-23T03:55:41;99097.25;;;8.61;100.00
33280;BME280;20403;43.114;12.434;2023-02-23T03:58:50;99098.34;;;8.47;100.00
33280;BME280;20403;43.114;12.434;2023-02-23T04:01:37;99112.94;;;8.48;100.00
33280;BME280;20403;43.114;12.434;2023-02-23T04:04:23;99107.56;;;8.43;100.00
33280;BME280;20403;43.114;12.434;2023-02-23T04:07:12;99107.56;;;8.36;100.00
33280;BME280;20403;43.114;12.434;2023-02-23T04:09:58;99116.38;;;8.42;100.00
33280;BME280;20403;43.114;12.434;2023-02-23T04:15:36;99113.75;;;8.35;100.00
33280;BME280;20403;43.114;12.434;2023-02-23T04:18:03;99115.56;;;8.35;100.00
33280;BME280;20403;43.114;12.434;2023-02-23T04:20:29;99113.41;;;8.32;100.00
33280;BME280;20403;43.114;12.434;2023-02-23T04:22:55;99121.13;;;8.45;100.00
33280;BME280;20403;43.114;12.434;2023-02-23T04:25:20;99122.50;;;8.54;100.00
33280;BME280;20403;43.114;12.434;2023-02-23T04:27:49;99114.06;;;8.59;100.00
33280;BME280;20403;43.114;12.434;2023-02-23T04:30:15;99123.84;;;8.63;100.00
33280;BME280;20403;43.114;12.434;2023-02-23T04:32:40;99114.47;;;8.62;100.00
33280;BME280;20403;43.114;12.434;2023-02-23T04:35:06;99118.47;;;8.58;100.00
33280;BME280;20403;43.114;12.434;2023-02-23T04:37:32;99119.31;;;8.52;100.00
33280;BME280;20403;43.114;12.434;2023-02-23T04:39:57;99115.09;;;8.58;100.00
33280;BME280;20403;43.114;12.434;2023-02-23T04:42:23;99122.44;;;8.68;100.00
33280;BME280;20403;43.114;12.434;2023-02-23T04:44:48;99123.47;;;8.60;100.00
33280;BME280;20403;43.114;12.434;2023-02-23T04:47:14;99125.50;;;8.58;100.00
33280;BME280;20403;43.114;12.434;2023-02-23T04:49:40;99123.72;;;8.45;100.00
33280;BME280;20403;43.114;12.434;2023-02-23T04:52:06;99118.59;;;8.32;100.00
33280;BME280;20403;43.114;12.434;2023-02-23T04:54:31;99125.19;;;8.28;100.00
33280;BME280;20403;43.114;12.434;2023-02-23T04:56:56;99112.59;;;8.25;100.00
33280;BME280;20403;43.114;12.434;2023-02-23T04:59:22;99112.19;;;8.34;100.00
33280;BME280;20403;43.114;12.434;2023-02-23T05:01:47;99117.31;;;8.48;100.00
33280;BME280;20403;43.114;12.434;2023-02-23T05:04:13;99125.13;;;8.48;100.00
33280;BME280;20403;43.114;12.434;2023-02-23T05:06:38;99127.53;;;8.49;100.00
33280;BME280;20403;43.114;12.434;2023-02-23T05:09:04;99121.28;;;8.57;100.00
33280;BME280;20403;43.114;12.434;2023-02-23T05:11:31;99113.31;;;8.52;100.00
33280;BME280;20403;43.114;12.434;2023-02-23T05:13:57;99110.34;;;8.48;100.00
33280;BME280;20403;43.114;12.434;2023-02-23T05:16:22;99111.31;;;8.54;100.00
33280;BME280;20403;43.114;12.434;2023-02-23T05:18:48;99117.53;;;8.53;100.00
33280;BME280;20403;43.114;12.434;2023-02-23T05:21:14;99124.34;;;8.47;100.00
33280;BME280;20403;43.114;12.434;2023-02-23T05:23:39;99116.09;;;8.57;100.00
33280;BME280;20403;43.114;12.434;2023-02-23T05:26:07;99118.31;;;8.53;100.00
33280;BME280;20403;43.114;12.434;2023-02-23T05:28:35;99120.06;;;8.59;100.00
33280;BME280;20403;43.114;12.434;2023-02-23T05:31:01;99115.50;;;8.55;100.00
33280;BME280;20403;43.114;12.434;2023-02-23T05:33:28;99114.69;;;8.54;100.00
33280;BME280;20403;43.114;12.434;2023-02-23T05:35:53;99113.28;;;8.58;100.00
33280;BME280;20403;43.114;12.434;2023-02-23T05:38:19;99112.53;;;8.51;100.00
33280;BME280;20403;43.114;12.434;2023-02-23T05:40:45;99107.94;;;8.47;100.00
33280;BME280;20403;43.114;12.434;2023-02-23T05:43:11;99104.34;;;8.48;100.00
33280;BME280;20403;43.114;12.434;2023-02-23T05:45:41;99113.13;;;8.53;100.00
33280;BME280;20403;43.114;12.434;2023-02-23T05:48:08;99111.94;;;8.49;100.00
33280;BME280;20403;43.114;12.434;2023-02-23T05:50:34;99105.97;;;8.42;100.00
33280;BME280;20403;43.114;12.434;2023-02-23T05:52:59;99105.19;;;8.41;100.00
33280;BME280;20403;43.114;12.434;2023-02-23T05:55:25;99099.97;;;8.48;100.00
33280;BME280;20403;43.114;12.434;2023-02-23T05:57:50;99098.72;;;8.57;100.00
33280;BME280;20403;43.114;12.434;2023-02-23T06:00:16;99097.84;;;8.63;100.00
33280;BME280;20403;43.114;12.434;2023-02-23T06:02:42;99097.03;;;8.70;100.00
33280;BME280;20403;43.114;12.434;2023-02-23T06:05:10;99092.47;;;8.65;100.00
33280;BME280;20403;43.114;12.434;2023-02-23T06:07:35;99092.00;;;8.75;100.00
33280;BME280;20403;43.114;12.434;2023-02-23T06:10:01;99098.38;;;8.79;100.00
33280;BME280;20403;43.114;12.434;2023-02-23T06:12:27;99094.41;;;8.76;100.00
33280;BME280;20403;43.114;12.434;2023-02-23T06:14:52;99096.56;;;8.79;100.00
33280;BME280;20403;43.114;12.434;2023-02-23T06:17:17;99097.59;;;8.78;100.00
33280;BME280;20403;43.114;12.434;2023-02-23T06:19:43;99100.00;;;8.73;100.00
33280;BME280;20403;43.114;12.434;2023-02-23T06:22:08;99091.84;;;8.70;100.00
33280;BME280;20403;43.114;12.434;2023-02-23T06:24:34;99097.47;;;8.67;100.00
33280;BME280;20403;43.114;12.434;2023-02-23T06:26:59;99097.03;;;8.70;100.00
33280;BME280;20403;43.114;12.434;2023-02-23T06:29:25;99109.59;;;8.73;100.00
33280;BME280;20403;43.114;12.434;2023-02-23T06:31:50;99126.84;;;8.67;100.00
33280;BME280;20403;43.114;12.434;2023-02-23T06:34:16;99124.84;;;8.69;100.00
33280;BME280;20403;43.114;12.434;2023-02-23T06:36:41;99117.47;;;8.59;100.00
33280;BME280;20403;43.114;12.434;2023-02-23T06:39:09;99112.22;;;8.66;100.00
33280;BME280;20403;43.114;12.434;2023-02-23T06:41:35;99111.84;;;8.69;100.00
33280;BME280;20403;43.114;12.434;2023-02-23T06:44:00;99115.03;;;8.71;100.00
33280;BME280;20403;43.114;12.434;2023-02-23T06:46:26;99127.44;;;8.69;100.00
33280;BME280;20403;43.114;12.434;2023-02-23T06:48:56;99117.03;;;8.69;100.00
33280;BME280;20403;43.114;12.434;2023-02-23T06:51:22;99121.63;;;8.67;100.00
33280;BME280;20403;43.114;12.434;2023-02-23T06:53:47;99117.66;;;8.65;100.00
33280;BME280;20403;43.114;12.434;2023-02-23T06:56:13;99119.88;;;8.61;100.00
33280;BME280;20403;43.114;12.434;2023-02-23T06:58:40;99122.63;;;8.66;100.00
33280;BME280;20403;43.114;12.434;2023-02-23T07:01:07;99118.63;;;8.70;100.00
33280;BME280;20403;43.114;12.434;2023-02-23T07:03:34;99124.25;;;8.67;100.00
33280;BME280;20403;43.114;12.434;2023-02-23T07:05:59;99128.97;;;8.77;100.00
33280;BME280;20403;43.114;12.434;2023-02-23T07:08:25;99127.94;;;8.84;100.00
33280;BME280;20403;43.114;12.434;2023-02-23T07:10:50;99128.16;;;8.83;100.00
33280;BME280;20403;43.114;12.434;2023-02-23T07:13:15;99132.09;;;8.92;100.00
33280;BME280;20403;43.114;12.434;2023-02-23T07:15:41;99135.06;;;8.96;100.00
33280;BME280;20403;43.114;12.434;2023-02-23T07:18:06;99133.84;;;8.98;100.00
33280;BME280;20403;43.114;12.434;2023-02-23T07:20:32;99132.41;;;9.02;100.00
33280;BME280;20403;43.114;12.434;2023-02-23T07:22:58;99136.03;;;9.01;100.00
33280;BME280;20403;43.114;12.434;2023-02-23T07:25:26;99135.03;;;9.02;100.00
33280;BME280;20403;43.114;12.434;2023-02-23T07:27:51;99133.22;;;9.03;100.00
33280;BME280;20403;43.114;12.434;2023-02-23T07:30:19;99142.19;;;9.07;100.00
33280;BME280;20403;43.114;12.434;2023-02-23T07:32:44;99143.72;;;9.15;100.00
33280;BME280;20403;43.114;12.434;2023-02-23T07:35:09;99146.53;;;9.20;100.00
33280;BME280;20403;43.114;12.434;2023-02-23T07:37:35;99140.84;;;9.30;100.00
33280;BME280;20403;43.114;12.434;2023-02-23T07:40:00;99147.03;;;9.54;100.00
33280;BME280;20403;43.114;12.434;2023-02-23T07:42:26;99151.03;;;10.00;100.00
33280;BME280;20403;43.114;12.434;2023-02-23T07:44:51;99148.22;;;10.20;100.00
33280;BME280;20403;43.114;12.434;2023-02-23T07:47:17;99152.56;;;10.26;100.00
33280;BME280;20403;43.114;12.434;2023-02-23T07:49:42;99150.31;;;10.48;100.00
33280;BME280;20403;43.114;12.434;2023-02-23T07:52:07;99147.69;;;10.66;100.00
33280;BME280;20403;43.114;12.434;2023-02-23T07:54:33;99153.16;;;10.77;100.00
33280;BME280;20403;43.114;12.434;2023-02-23T07:56:59;99152.41;;;10.88;100.00
33280;BME280;20403;43.114;12.434;2023-02-23T07:59:24;99142.56;;;11.02;100.00
33280;BME280;20403;43.114;12.434;2023-02-23T08:01:50;99149.63;;;11.01;100.00
33280;BME280;20403;43.114;12.434;2023-02-23T08:04:17;99142.81;;;11.00;100.00
33280;BME280;20403;43.114;12.434;2023-02-23T08:06:42;99151.06;;;10.97;100.00
33280;BME280;20403;43.114;12.434;2023-02-23T08:09:07;99157.78;;;10.93;100.00
33280;BME280;20403;43.114;12.434;2023-02-23T08:11:34;99153.56;;;10.92;100.00
33280;BME280;20403;43.114;12.434;2023-02-23T08:14:00;99147.69;;;10.97;100.00
33280;BME280;20403;43.114;12.434;2023-02-23T08:16:29;99146.56;;;11.04;100.00
33280;BME280;20403;43.114;12.434;2023-02-23T08:18:56;99146.59;;;11.16;100.00
33280;BME280;20403;43.114;12.434;2023-02-23T08:21:25;99148.88;;;11.24;100.00
33280;BME280;20403;43.114;12.434;2023-02-23T08:23:51;99145.13;;;11.32;100.00
33280;BME280;20403;43.114;12.434;2023-02-23T08:26:17;99152.09;;;11.50;100.00
33280;BME280;20403;43.114;12.434;2023-02-23T08:28:42;99156.53;;;11.49;100.00
33280;BME280;20403;43.114;12.434;2023-02-23T08:31:13;99153.22;;;11.54;100.00
33280;BME280;20403;43.114;12.434;2023-02-23T08:33:40;99156.41;;;11.56;100.00
33280;BME280;20403;43.114;12.434;2023-02-23T08:36:06;99158.56;;;11.47;100.00
33280;BME280;20403;43.114;12.434;2023-02-23T08:38:32;99158.25;;;11.55;100.00
33280;BME280;20403;43.114;12.434;2023-02-23T08:41:01;99168.34;;;11.64;100.00
33280;BME280;20403;43.114;12.434;2023-02-23T08:43:27;99168.44;;;11.69;100.00
33280;BME280;20403;43.114;12.434;2023-02-23T08:45:52;99165.25;;;11.67;100.00
33280;BME280;20403;43.114;12.434;2023-02-23T08:48:18;99169.81;;;11.60;100.00
33280;BME280;20403;43.114;12.434;2023-02-23T08:50:43;99166.19;;;11.61;100.00
33280;BME280;20403;43.114;12.434;2023-02-23T08:53:09;99171.97;;;11.63;100.00
33280;BME280;20403;43.114;12.434;2023-02-23T08:55:36;99178.78;;;11.64;100.00
33280;BME280;20403;43.114;12.434;2023-02-23T08:58:02;99182.28;;;11.57;100.00
33280;BME280;20403;43.114;12.434;2023-02-23T09:00:28;99169.22;;;11.46;100.00
33280;BME280;20403;43.114;12.434;2023-02-23T09:02:53;99174.13;;;11.54;100.00
33280;BME280;20403;43.114;12.434;2023-02-23T09:05:18;99166.75;;;11.51;100.00
33280;BME280;20403;43.114;12.434;2023-02-23T09:07:45;99168.88;;;11.42;100.00
33280;BME280;20403;43.114;12.434;2023-02-23T09:10:12;99176.63;;;11.49;100.00
33280;BME280;20403;43.114;12.434;2023-02-23T09:12:38;99174.00;;;11.49;100.00
33280;BME280;20403;43.114;12.434;2023-02-23T09:15:04;99172.66;;;11.58;100.00
33280;BME280;20403;43.114;12.434;2023-02-23T09:17:29;99172.41;;;11.71;100.00
33280;BME280;20403;43.114;12.434;2023-02-23T09:19:54;99165.06;;;11.92;100.00
33280;BME280;20403;43.114;12.434;2023-02-23T09:22:20;99168.22;;;12.17;100.00
33280;BME280;20403;43.114;12.434;2023-02-23T09:24:45;99168.63;;;12.38;100.00
33280;BME280;20403;43.114;12.434;2023-02-23T09:27:11;99171.47;;;12.48;100.00
33280;BME280;20403;43.114;12.434;2023-02-23T09:29:37;99162.78;;;12.59;100.00
33280;BME280;20403;43.114;12.434;2023-02-23T09:32:06;99162.75;;;12.71;100.00
33280;BME280;20403;43.114;12.434;2023-02-23T09:34:31;99162.69;;;12.83;100.00
33280;BME280;20403;43.114;12.434;2023-02-23T09:36:57;99160.66;;;13.02;100.00
33280;BME280;20403;43.114;12.434;2023-02-23T09:39:22;99162.50;;;13.18;100.00
33280;BME280;20403;43.114;12.434;2023-02-23T09:42:18;99164.38;;;13.35;100.00
33280;BME280;20403;43.114;12.434;2023-02-23T09:45:03;99162.19;;;13.15;100.00
33280;BME280;20403;43.114;12.434;2023-02-23T09:47:39;99163.06;;;13.03;100.00
33280;BME280;20403;43.114;12.434;2023-02-23T09:50:29;99166.94;;;13.18;100.00
33280;BME280;20403;43.114;12.434;2023-02-23T09:55:56;99161.56;;;13.24;100.00
33280;BME280;20403;43.114;12.434;2023-02-23T09:58:24;99169.09;;;13.21;100.00
33280;BME280;20403;43.114;12.434;2023-02-23T10:03:41;99150.06;;;13.59;100.00
33280;BME280;20403;43.114;12.434;2023-02-23T10:06:15;99155.53;;;13.75;100.00
33280;BME280;20403;43.114;12.434;2023-02-23T10:09:44;99148.81;;;14.01;100.00
33280;BME280;20403;43.114;12.434;2023-02-23T10:12:05;99152.28;;;14.50;100.00
33280;BME280;20403;43.114;12.434;2023-02-23T10:17:47;99146.34;;;14.82;100.00
33280;BME280;20403;43.114;12.434;2023-02-23T10:22:50;99146.94;;;14.89;100.00
33280;BME280;20403;43.114;12.434;2023-02-23T10:25:23;99141.63;;;14.57;100.00
33280;BME280;20403;43.114;12.434;2023-02-23T10:27:51;99146.09;;;14.57;100.00
33280;BME280;20403;43.114;12.434;2023-02-23T10:30:23;99142.97;;;14.60;100.00
33280;BME280;20403;43.114;12.434;2023-02-23T10:35:36;99144.28;;;15.17;100.00
33280;BME280;20403;43.114;12.434;2023-02-23T10:38:03;99141.03;;;15.04;100.00
33280;BME280;20403;43.114;12.434;2023-02-23T10:40:32;99132.03;;;15.27;100.00
33280;BME280;20403;43.114;12.434;2023-02-23T10:43:01;99131.16;;;15.54;100.00
33280;BME280;20403;43.114;12.434;2023-02-23T10:45:28;99130.03;;;15.45;100.00
33280;BME280;20403;43.114;12.434;2023-02-23T10:48:12;99130.69;;;15.25;100.00
33280;BME280;20403;43.114;12.434;2023-02-23T10:50:41;99134.56;;;15.17;100.00
33280;BME280;20403;43.114;12.434;2023-02-23T10:53:22;99125.53;;;15.40;100.00
33280;BME280;20403;43.114;12.434;2023-02-23T10:56:18;99138.91;;;15.71;100.00
33280;BME280;20403;43.114;12.434;2023-02-23T11:01:27;99121.16;;;15.93;100.00
33280;BME280;20403;43.114;12.434;2023-02-23T11:04:31;99120.44;;;15.66;100.00
33280;BME280;20403;43.114;12.434;2023-02-23T11:07:15;99120.63;;;15.49;100.00
33280;BME280;20403;43.114;12.434;2023-02-23T11:09:41;99111.59;;;15.77;100.00
33280;BME280;20403;43.114;12.434;2023-02-23T11:12:19;99113.63;;;15.65;100.00
33280;BME280;20403;43.114;12.434;2023-02-23T11:14:48;99117.09;;;15.70;100.00
33280;BME280;20403;43.114;12.434;2023-02-23T11:17:33;99114.69;;;15.69;100.00
33280;BME280;20403;43.114;12.434;2023-02-23T11:20:03;99111.06;;;15.32;100.00
33280;BME280;20403;43.114;12.434;2023-02-23T11:22:31;99103.56;;;15.14;100.00
33280;BME280;20403;43.114;12.434;2023-02-23T11:24:57;99098.97;;;14.99;100.00
33280;BME280;20403;43.114;12.434;2023-02-23T11:27:25;99102.41;;;14.73;100.00
33280;BME280;20403;43.114;12.434;2023-02-23T11:29:54;99100.41;;;14.58;100.00
33280;BME280;20403;43.114;12.434;2023-02-23T11:32:22;99102.22;;;14.79;100.00
33280;BME280;20403;43.114;12.434;2023-02-23T11:37:37;99097.03;;;15.22;100.00
33280;BME280;20403;43.114;12.434;2023-02-23T11:43:16;99097.91;;;14.68;100.00
33280;BME280;20403;43.114;12.434;2023-02-23T11:48:22;99094.56;;;14.50;100.00
33280;BME280;20403;43.114;12.434;2023-02-23T11:50:49;99097.00;;;14.57;100.00
33280;BME280;20403;43.114;12.434;2023-02-23T11:53:28;99098.66;;;14.63;100.00
33280;BME280;20403;43.114;12.434;2023-02-23T11:55:58;99088.00;;;14.75;100.00
33280;BME280;20403;43.114;12.434;2023-02-23T11:58:37;99097.16;;;14.73;100.00
33280;BME280;20403;43.114;12.434;2023-02-23T12:01:36;99096.44;;;14.77;100.00
33280;BME280;20403;43.114;12.434;2023-02-23T12:04:06;99087.97;;;14.70;100.00
33280;BME280;20403;43.114;12.434;2023-02-23T12:06:38;99086.53;;;14.57;100.00
33280;BME280;20403;43.114;12.434;2023-02-23T12:12:03;99077.09;;;14.88;100.00
33280;BME280;20403;43.114;12.434;2023-02-23T12:14:36;99081.44;;;15.05;100.00
33280;BME280;20403;43.114;12.434;2023-02-23T12:17:08;99064.19;;;15.19;100.00
33280;BME280;20403;43.114;12.434;2023-02-23T12:19:43;99063.31;;;15.46;100.00
33280;BME280;20403;43.114;12.434;2023-02-23T12:22:34;99064.31;;;15.40;100.00
33280;BME280;20403;43.114;12.434;2023-02-23T12:25:08;99063.75;;;15.32;100.00
33280;BME280;20403;43.114;12.434;2023-02-23T12:27:45;99065.53;;;15.22;100.00
33280;BME280;20403;43.114;12.434;2023-02-23T12:33:36;99059.25;;;14.90;100.00
33280;BME280;20403;43.114;12.434;2023-02-23T12:39:05;99060.53;;;14.88;100.00
33280;BME280;20403;43.114;12.434;2023-02-23T12:41:41;99063.47;;;14.91;100.00
33280;BME280;20403;43.114;12.434;2023-02-23T12:46:50;99057.44;;;14.91;100.00
33280;BME280;20403;43.114;12.434;2023-02-23T12:52:00;99049.88;;;15.00;100.00
33280;BME280;20403;43.114;12.434;2023-02-23T12:54:30;99047.56;;;15.08;100.00
33280;BME280;20403;43.114;12.434;2023-02-23T12:57:16;99041.25;;;15.52;100.00
33280;BME280;20403;43.114;12.434;2023-02-23T12:59:51;99046.50;;;16.10;100.00
33280;BME280;20403;43.114;12.434;2023-02-23T13:10:50;99033.66;;;16.24;100.00
33280;BME280;20403;43.114;12.434;2023-02-23T13:14:01;99033.34;;;16.05;100.00
33280;BME280;20403;43.114;12.434;2023-02-23T13:16:48;99029.13;;;15.99;100.00
33280;BME280;20403;43.114;12.434;2023-02-23T13:19:38;99023.66;;;16.15;100.00
33280;BME280;20403;43.114;12.434;2023-02-23T13:22:39;99029.94;;;16.09;100.00
33280;BME280;20403;43.114;12.434;2023-02-23T13:25:14;99028.34;;;15.98;100.00
33280;BME280;20403;43.114;12.434;2023-02-23T13:27:48;99034.31;;;15.78;100.00
33280;BME280;20403;43.114;12.434;2023-02-23T13:30:16;99038.19;;;15.65;100.00
33280;BME280;20403;43.114;12.434;2023-02-23T13:32:42;99031.38;;;15.69;100.00
33280;BME280;20403;43.114;12.434;2023-02-23T13:35:18;99041.56;;;15.55;100.00
33280;BME280;20403;43.114;12.434;2023-02-23T13:37:56;99032.00;;;15.39;100.00
33280;BME280;20403;43.114;12.434;2023-02-23T13:41:35;99040.38;;;15.36;100.00
33280;BME280;20403;43.114;12.434;2023-02-23T13:44:06;99031.19;;;15.39;100.00
33280;BME280;20403;43.114;12.434;2023-02-23T13:52:18;99037.50;;;15.32;100.00
33280;BME280;20403;43.114;12.434;2023-02-23T13:54:54;99032.22;;;15.27;100.00
33280;BME280;20403;43.114;12.434;2023-02-23T13:57:28;99041.69;;;15.33;100.00
33280;BME280;20403;43.114;12.434;2023-02-23T13:59:54;99030.72;;;15.47;100.00
33280;BME280;20403;43.114;12.434;2023-02-23T14:02:29;99025.38;;;15.79;100.00
33280;BME280;20403;43.114;12.434;2023-02-23T14:05:04;99033.91;;;16.12;100.00
33280;BME280;20403;43.114;12.434;2023-02-23T14:07:32;99032.13;;;16.48;100.00
33280;BME280;20403;43.114;12.434;2023-02-23T14:10:08;99019.50;;;16.71;100.00
33280;BME280;20403;43.114;12.434;2023-02-23T14:12:41;99024.22;;;16.48;100.00
33280;BME280;20403;43.114;12.434;2023-02-23T14:15:28;99025.75;;;16.29;100.00
33280;BME280;20403;43.114;12.434;2023-02-23T14:20:43;99030.28;;;15.65;100.00
33280;BME280;20403;43.114;12.434;2023-02-23T14:31:05;99018.38;;;15.47;100.00
33280;BME280;20403;43.114;12.434;2023-02-23T14:39:06;99017.72;;;15.72;100.00
33280;BME280;20403;43.114;12.434;2023-02-23T14:46:32;99029.97;;;15.51;100.00
33280;BME280;20403;43.114;12.434;2023-02-23T14:49:08;99025.72;;;15.45;100.00
33280;BME280;20403;43.114;12.434;2023-02-23T14:54:10;99023.56;;;15.32;100.00
33280;BME280;20403;43.114;12.434;2023-02-23T14:56:45;99028.28;;;15.30;100.00
33280;BME280;20403;43.114;12.434;2023-02-23T14:59:17;99032.72;;;15.29;100.00
33280;BME280;20403;43.114;12.434;2023-02-23T15:01:45;99030.81;;;15.20;100.00
33280;BME280;20403;43.114;12.434;2023-02-23T15:04:13;99026.13;;;15.22;100.00
33280;BME280;20403;43.114;12.434;2023-02-23T15:06:40;99029.25;;;15.19;100.00
33280;BME280;20403;43.114;12.434;2023-02-23T15:09:14;99038.66;;;15.09;100.00